Time;durP1;ratioP1;P1;durP2;ratioP2;P2;SDS_P1;SDS_P2;PMS_P1;PMS_P2;Temp;Humidity;BMP_temperature;BMP_pressure;BME280_temperature;BME280_humidity;BME280_pressure;Samples;Min_cycle;Max_cycle;Signal;HPM_P1;HPM_P2
2023/08/11 00:00:08;;;;;;;4.00;3.33;;;17.70;99.90;;;;;;5004779;28;20232;-59
2023/08/11 00:02:38;;;;;;;3.43;3.27;;;17.70;99.90;;;;;;5001235;28;20645;-59
2023/08/11 00:05:08;;;;;;;3.30;3.10;;;17.60;99.90;;;;;;5005312;28;20223;-59
2023/08/11 00:07:37;;;;;;;3.60;3.03;;;17.60;99.90;;;;;;5007620;28;20229;-59
2023/08/11 00:10:07;;;;;;;3.17;3.07;;;17.60;99.90;;;;;;5010644;28;20234;-59
2023/08/11 00:12:36;;;;;;;3.40;3.20;;;17.60;99.90;;;;;;5002003;28;20190;-59
2023/08/11 00:15:06;;;;;;;3.60;3.30;;;17.50;99.90;;;;;;5012036;28;20330;-59
2023/08/11 00:17:35;;;;;;;3.63;3.43;;;17.50;99.90;;;;;;5003590;28;20226;-59
2023/08/11 00:20:06;;;;;;;3.63;2.90;;;17.50;99.90;;;;;;5003312;28;20269;-59
2023/08/11 00:22:37;;;;;;;4.70;3.17;;;17.50;99.90;;;;;;5005352;28;20228;-58
2023/08/11 00:25:06;;;;;;;3.67;3.27;;;17.50;99.90;;;;;;4998230;28;20671;-58
2023/08/11 00:27:34;;;;;;;5.67;3.40;;;17.40;99.90;;;;;;4998035;28;20609;-59
2023/08/11 00:30:04;;;;;;;3.67;3.37;;;17.40;99.90;;;;;;5003751;28;20225;-58
2023/08/11 00:32:32;;;;;;;3.80;3.33;;;17.40;99.90;;;;;;5005039;28;20221;-59
2023/08/11 00:35:02;;;;;;;3.47;3.20;;;17.30;99.90;;;;;;4991652;28;20223;-59
2023/08/11 00:37:31;;;;;;;7.33;3.20;;;17.30;99.90;;;;;;5003237;28;20224;-59
2023/08/11 00:40:00;;;;;;;3.73;3.40;;;17.30;99.90;;;;;;4993517;28;20199;-59
2023/08/11 00:42:29;;;;;;;3.33;3.13;;;17.30;99.90;;;;;;4999468;28;20216;-59
2023/08/11 00:44:58;;;;;;;3.43;3.20;;;17.20;99.90;;;;;;4997116;28;20225;-60
2023/08/11 00:47:27;;;;;;;3.30;3.10;;;17.20;99.90;;;;;;4987943;28;20323;-59
2023/08/11 00:49:55;;;;;;;3.50;2.97;;;17.20;99.90;;;;;;5004530;28;20723;-59
2023/08/11 00:52:23;;;;;;;3.40;3.10;;;17.20;99.90;;;;;;4996441;28;20225;-59
2023/08/11 00:54:54;;;;;;;3.47;3.20;;;17.20;99.90;;;;;;5005561;28;20760;-60
2023/08/11 00:57:24;;;;;;;3.90;3.60;;;17.10;99.90;;;;;;5006592;28;20218;-59
2023/08/11 00:59:53;;;;;;;3.70;3.50;;;17.10;99.90;;;;;;4998340;28;20305;-59
2023/08/11 01:02:21;;;;;;;3.90;3.50;;;17.00;99.90;;;;;;5003127;28;20222;-59
2023/08/11 01:04:50;;;;;;;3.73;3.37;;;17.00;99.90;;;;;;5000279;28;20244;-59
2023/08/11 01:07:24;;;;;;;3.70;3.50;;;16.90;99.90;;;;;;4996180;28;20625;-59
2023/08/11 01:10:03;;;;;;;4.27;3.37;;;16.90;99.90;;;;;;5005018;28;20320;-59
2023/08/11 01:12:42;;;;;;;4.03;3.67;;;16.80;99.90;;;;;;5004858;28;20317;-58
2023/08/11 01:15:16;;;;;;;3.47;3.27;;;16.80;99.90;;;;;;5002750;28;20218;-58
2023/08/11 01:17:48;;;;;;;4.20;3.40;;;16.70;99.90;;;;;;5006592;28;20230;-58
2023/08/11 01:20:17;;;;;;;3.90;3.50;;;16.70;99.90;;;;;;5003480;28;20672;-58
2023/08/11 01:22:48;;;;;;;5.10;3.50;;;16.70;99.90;;;;;;5004174;28;20650;-58
2023/08/11 01:25:18;;;;;;;4.47;4.10;;;16.60;99.90;;;;;;5002984;28;20250;-58
2023/08/11 01:27:52;;;;;;;3.60;3.40;;;16.60;99.90;;;;;;5003193;28;20676;-58
2023/08/11 01:30:21;;;;;;;3.50;3.30;;;16.50;99.90;;;;;;4993546;28;20579;-59
2023/08/11 01:32:50;;;;;;;4.00;3.67;;;16.50;99.90;;;;;;5005481;28;20273;-57
2023/08/11 01:35:19;;;;;;;4.87;3.33;;;16.50;99.90;;;;;;4987523;28;20221;-58
2023/08/11 01:38:08;;;;;;;3.80;3.43;;;16.50;99.90;;;;;;5007760;28;20239;-58
2023/08/11 01:40:39;;;;;;;3.97;3.30;;;16.50;99.90;;;;;;4996314;28;20230;-58
2023/08/11 01:43:10;;;;;;;10.37;3.70;;;16.40;99.90;;;;;;4999526;28;20211;-58
2023/08/11 01:45:40;;;;;;;4.13;3.70;;;16.40;99.90;;;;;;4997737;28;20220;-59
2023/08/11 01:48:11;;;;;;;3.90;3.53;;;16.30;99.90;;;;;;5003901;28;20228;-59
2023/08/11 01:50:39;;;;;;;3.80;3.50;;;16.30;99.90;;;;;;5006252;28;20768;-60
2023/08/11 01:53:07;;;;;;;4.00;3.70;;;16.30;99.90;;;;;;4990127;28;20303;-60
2023/08/11 01:55:38;;;;;;;4.10;3.80;;;16.30;99.90;;;;;;5004883;28;20246;-59
2023/08/11 01:58:07;;;;;;;3.87;3.63;;;16.20;99.90;;;;;;5002348;28;20201;-59
2023/08/11 02:00:36;;;;;;;4.23;3.90;;;16.20;99.90;;;;;;4983731;28;20216;-60
2023/08/11 02:03:05;;;;;;;3.93;3.63;;;16.20;99.90;;;;;;5003255;28;20607;-59
2023/08/11 02:05:33;;;;;;;5.27;3.50;;;16.20;99.90;;;;;;5004885;28;20251;-60
2023/08/11 02:08:02;;;;;;;5.83;3.67;;;16.20;99.90;;;;;;5006969;28;20296;-59
2023/08/11 02:10:31;;;;;;;4.77;4.03;;;16.20;99.90;;;;;;4999534;28;20230;-59
2023/08/11 02:13:01;;;;;;;4.10;3.80;;;16.20;99.90;;;;;;5002595;28;20657;-59
2023/08/11 02:15:30;;;;;;;8.07;4.07;;;16.20;99.90;;;;;;5003728;28;20198;-59
2023/08/11 02:17:58;;;;;;;6.03;4.13;;;16.20;99.90;;;;;;5001583;28;20224;-59
2023/08/11 02:20:27;;;;;;;5.87;4.40;;;16.20;99.90;;;;;;5001390;28;20233;-59
2023/08/11 02:22:55;;;;;;;7.37;4.67;;;16.30;99.90;;;;;;4997617;28;20228;-59
2023/08/11 02:25:25;;;;;;;5.93;4.37;;;16.30;99.90;;;;;;5008253;28;20253;-59
2023/08/11 02:27:54;;;;;;;4.60;4.13;;;16.30;99.90;;;;;;5004977;28;20222;-58
2023/08/11 02:30:24;;;;;;;4.37;3.97;;;16.30;99.90;;;;;;5008599;28;20567;-59
2023/08/11 02:32:53;;;;;;;7.07;4.00;;;16.40;99.90;;;;;;5008070;28;20216;-58
2023/08/11 02:35:21;;;;;;;6.87;4.10;;;16.40;99.90;;;;;;4995191;28;20681;-59
2023/08/11 02:37:50;;;;;;;4.17;3.87;;;16.40;99.90;;;;;;4998861;28;20223;-59
2023/08/11 02:40:19;;;;;;;4.57;4.27;;;16.40;99.90;;;;;;5005929;28;20226;-58
2023/08/11 02:42:54;;;;;;;5.30;4.73;;;16.40;99.90;;;;;;4999642;28;20657;-59
2023/08/11 02:45:25;;;;;;;5.13;4.70;;;16.40;99.90;;;;;;5004760;28;20223;-59
2023/08/11 02:47:54;;;;;;;4.70;4.30;;;16.50;99.90;;;;;;4994348;28;20215;-59
2023/08/11 02:50:22;;;;;;;4.57;4.27;;;16.50;99.90;;;;;;5004983;28;20235;-59
2023/08/11 02:52:51;;;;;;;4.53;4.00;;;16.50;99.90;;;;;;4995134;28;20242;-59
2023/08/11 02:55:19;;;;;;;7.70;4.70;;;16.50;99.90;;;;;;5008813;28;20232;-59
2023/08/11 02:57:48;;;;;;;5.17;4.10;;;16.50;99.90;;;;;;5006084;28;20935;-58
2023/08/11 03:00:17;;;;;;;4.33;4.03;;;16.40;99.90;;;;;;5005771;28;20297;-59
2023/08/11 03:02:47;;;;;;;5.03;4.47;;;16.40;99.90;;;;;;5000456;28;20224;-59
2023/08/11 03:05:17;;;;;;;4.93;4.43;;;16.40;99.90;;;;;;5000358;28;20720;-59
2023/08/11 03:07:45;;;;;;;4.93;4.43;;;16.40;99.90;;;;;;5002785;28;20224;-59
2023/08/11 03:10:13;;;;;;;8.43;4.73;;;16.30;99.90;;;;;;5006232;28;20234;-59
2023/08/11 03:12:42;;;;;;;7.00;4.50;;;16.30;99.90;;;;;;5011822;28;20192;-59
2023/08/11 03:15:11;;;;;;;7.80;4.80;;;16.30;99.90;;;;;;4987030;28;20222;-59
2023/08/11 03:17:40;;;;;;;4.67;4.30;;;16.30;99.90;;;;;;5005655;28;20219;-59
2023/08/11 03:20:12;;;;;;;7.40;4.80;;;16.30;99.90;;;;;;5010131;28;20218;-59
2023/08/11 03:22:43;;;;;;;7.67;4.77;;;16.30;99.90;;;;;;5008441;28;20226;-59
2023/08/11 03:25:13;;;;;;;4.90;4.50;;;16.30;99.90;;;;;;5009565;28;20216;-58
2023/08/11 03:27:42;;;;;;;7.50;5.07;;;16.30;99.90;;;;;;5011204;28;20569;-58
2023/08/11 03:30:12;;;;;;;5.43;4.97;;;16.30;99.90;;;;;;5007486;28;20276;-59
2023/08/11 03:32:41;;;;;;;6.90;5.03;;;16.30;99.90;;;;;;5001829;28;20230;-59
2023/08/11 03:35:11;;;;;;;6.57;4.67;;;16.30;99.90;;;;;;5006287;28;20305;-58
2023/08/11 03:37:40;;;;;;;6.73;5.30;;;16.20;99.90;;;;;;4995046;28;20234;-59
2023/08/11 03:40:12;;;;;;;7.30;5.43;;;16.30;99.90;;;;;;5002677;28;20195;-59
2023/08/11 03:42:43;;;;;;;6.80;5.23;;;16.30;99.90;;;;;;5007637;28;20656;-59
2023/08/11 03:45:14;;;;;;;5.93;5.20;;;16.30;99.90;;;;;;5010795;28;20233;-58
2023/08/11 03:47:43;;;;;;;7.53;5.37;;;16.40;99.90;;;;;;5011298;28;20705;-59
2023/08/11 03:50:13;;;;;;;5.30;4.90;;;16.30;99.90;;;;;;5006640;28;20240;-58
2023/08/11 03:52:42;;;;;;;11.77;5.70;;;16.30;99.90;;;;;;5002747;28;20232;-58
2023/08/11 03:55:12;;;;;;;7.80;5.23;;;16.30;99.90;;;;;;5000547;28;20745;-58
2023/08/11 03:57:40;;;;;;;6.67;5.37;;;16.30;99.90;;;;;;5003143;28;20217;-58
2023/08/11 04:00:12;;;;;;;6.97;5.23;;;16.20;99.90;;;;;;5003994;28;20229;-58
2023/08/11 04:02:40;;;;;;;7.90;5.70;;;16.30;99.90;;;;;;5001559;28;20322;-58
2023/08/11 04:05:10;;;;;;;9.43;5.60;;;16.30;99.90;;;;;;5003481;28;20232;-58
2023/08/11 04:07:40;;;;;;;7.00;5.67;;;16.20;99.90;;;;;;5002131;28;20236;-59
2023/08/11 04:10:10;;;;;;;10.30;5.83;;;16.30;99.90;;;;;;5005752;28;20303;-58
2023/08/11 04:12:39;;;;;;;9.60;5.73;;;16.30;99.90;;;;;;5003602;28;20204;-58
2023/08/11 04:15:08;;;;;;;7.70;5.87;;;16.20;99.90;;;;;;5010989;28;20646;-58
2023/08/11 04:17:36;;;;;;;7.87;5.80;;;16.20;99.90;;;;;;5005291;28;20313;-58
2023/08/11 04:20:12;;;;;;;13.60;6.83;;;16.20;99.90;;;;;;5003082;28;20271;-58
2023/08/11 04:22:43;;;;;;;8.03;6.40;;;16.20;99.90;;;;;;5007179;28;20641;-58
2023/08/11 04:25:13;;;;;;;9.83;5.80;;;16.20;99.90;;;;;;5004773;28;20218;-58
2023/08/11 04:27:42;;;;;;;9.77;6.03;;;16.20;99.90;;;;;;5007938;28;20210;-58
2023/08/11 04:30:12;;;;;;;9.30;6.27;;;16.10;99.90;;;;;;5007445;28;20222;-57
2023/08/11 04:32:40;;;;;;;9.30;6.40;;;16.10;99.90;;;;;;5002960;28;20226;-58
2023/08/11 04:35:09;;;;;;;8.20;5.90;;;16.10;99.90;;;;;;5002113;28;20224;-58
2023/08/11 04:37:38;;;;;;;10.43;6.07;;;16.20;99.90;;;;;;5009344;28;20245;-58
2023/08/11 04:40:10;;;;;;;9.17;5.93;;;16.20;99.90;;;;;;5007191;28;20189;-57
2023/08/11 04:42:39;;;;;;;7.70;6.27;;;16.20;99.90;;;;;;5002606;28;20205;-58
2023/08/11 04:45:08;;;;;;;8.63;6.07;;;16.20;99.90;;;;;;5004883;28;20224;-57
2023/08/11 04:47:37;;;;;;;8.43;6.33;;;16.30;99.90;;;;;;5003836;28;20313;-58
2023/08/11 04:50:07;;;;;;;6.73;5.70;;;16.30;99.90;;;;;;5003553;28;20264;-57
2023/08/11 04:52:36;;;;;;;6.37;5.77;;;16.40;99.90;;;;;;4988624;28;20716;-58
2023/08/11 04:55:05;;;;;;;12.40;6.40;;;16.30;99.90;;;;;;5003783;28;20186;-57
2023/08/11 04:57:35;;;;;;;8.17;6.00;;;16.40;99.90;;;;;;5010395;28;20291;-58
2023/08/11 05:00:06;;;;;;;10.03;6.10;;;16.40;99.90;;;;;;5004481;28;20229;-58
2023/08/11 05:02:34;;;;;;;10.30;6.37;;;16.40;99.90;;;;;;4999988;28;20301;-58
2023/08/11 05:05:05;;;;;;;8.90;5.60;;;16.40;99.90;;;;;;5004623;28;20713;-58
2023/08/11 05:07:33;;;;;;;9.90;5.20;;;16.40;99.90;;;;;;5002603;28;20235;-58
2023/08/11 05:10:02;;;;;;;6.67;5.23;;;16.40;99.90;;;;;;5001990;28;20221;-57
2023/08/11 05:12:30;;;;;;;6.87;5.20;;;16.50;99.90;;;;;;5008708;28;20677;-57
2023/08/11 05:15:00;;;;;;;8.50;5.80;;;16.60;99.90;;;;;;5005063;28;20228;-58
2023/08/11 05:17:29;;;;;;;6.50;4.90;;;16.60;99.90;;;;;;4999632;28;20268;-57
2023/08/11 05:19:57;;;;;;;5.83;5.13;;;16.60;99.90;;;;;;5004418;28;20247;-57
2023/08/11 05:22:25;;;;;;;7.47;5.40;;;16.70;99.90;;;;;;4999250;28;20225;-58
2023/08/11 05:24:54;;;;;;;10.97;5.07;;;16.70;99.90;;;;;;4988604;28;20206;-57
2023/08/11 05:27:22;;;;;;;7.03;5.27;;;16.80;99.90;;;;;;5004796;28;20676;-58
2023/08/11 05:29:51;;;;;;;7.97;4.93;;;16.90;99.90;;;;;;5006127;28;20225;-58
2023/08/11 05:32:20;;;;;;;6.37;4.70;;;17.10;99.90;;;;;;5006479;28;20268;-58
2023/08/11 05:34:49;;;;;;;6.60;4.57;;;17.20;99.90;;;;;;5003259;28;20448;-58
2023/08/11 05:37:18;;;;;;;5.73;4.63;;;17.40;99.90;;;;;;4997787;28;20233;-58
2023/08/11 05:39:46;;;;;;;6.63;4.40;;;17.50;99.90;;;;;;5005698;28;20575;-58
2023/08/11 05:42:14;;;;;;;5.93;4.43;;;17.60;99.90;;;;;;5004700;28;20291;-59
2023/08/11 05:44:43;;;;;;;5.17;4.17;;;17.80;96.60;;;;;;4997314;28;20217;-59
2023/08/11 05:47:12;;;;;;;9.33;4.53;;;17.90;80.00;;;;;;5004602;28;20727;-59
2023/08/11 05:49:42;;;;;;;7.73;4.67;;;18.10;73.10;;;;;;4987743;28;20219;-58
2023/08/11 05:52:10;;;;;;;8.40;4.60;;;18.30;50.70;;;;;;5004320;28;20269;-58
2023/08/11 05:54:39;;;;;;;7.87;4.37;;;18.50;35.30;;;;;;4987150;28;20528;-59
2023/08/11 05:57:07;;;;;;;6.03;3.80;;;18.70;22.30;;;;;;4996277;28;20718;-59
2023/08/11 05:59:36;;;;;;;7.40;3.90;;;18.80;9.00;;;;;;5002379;28;20229;-59
2023/08/11 06:02:05;;;;;;;5.53;4.33;;;19.00;1.00;;;;;;5001879;28;20228;-58
2023/08/11 06:04:33;;;;;;;5.13;3.60;;;19.20;1.00;;;;;;5001836;28;20247;-58
2023/08/11 06:07:03;;;;;;;3.60;3.30;;;19.30;1.00;;;;;;5012749;28;20190;-57
2023/08/11 06:09:32;;;;;;;4.23;3.93;;;19.50;1.00;;;;;;5008258;28;20235;-58
2023/08/11 06:12:00;;;;;;;3.77;3.50;;;19.60;1.00;;;;;;5002751;28;20250;-58
2023/08/11 06:14:28;;;;;;;6.83;3.70;;;19.80;1.00;;;;;;5009810;28;20668;-59
2023/08/11 06:16:57;;;;;;;3.97;3.50;;;19.90;1.00;;;;;;5006515;28;20229;-59
2023/08/11 06:19:25;;;;;;;6.57;3.73;;;20.10;1.00;;;;;;5006880;28;20661;-59
2023/08/11 06:21:55;;;;;;;4.40;3.70;;;20.20;1.00;;;;;;5003374;28;20567;-58
2023/08/11 06:24:25;;;;;;;3.73;3.07;;;20.40;1.00;;;;;;5005414;28;20634;-59
2023/08/11 06:26:53;;;;;;;3.57;3.30;;;20.60;1.00;;;;;;5006513;28;20227;-59
2023/08/11 06:29:22;;;;;;;3.77;3.40;;;20.80;1.00;;;;;;5008261;28;20224;-59
2023/08/11 06:31:51;;;;;;;4.60;3.13;;;20.90;1.00;;;;;;5005495;28;20645;-58
2023/08/11 06:34:20;;;;;;;6.30;3.63;;;21.10;1.00;;;;;;5000763;28;20689;-59
2023/08/11 06:36:49;;;;;;;4.30;3.00;;;21.30;1.00;;;;;;5008053;28;20182;-59
2023/08/11 06:39:17;;;;;;;3.70;3.40;;;21.50;1.00;;;;;;5007795;28;20313;-59
2023/08/11 06:41:47;;;;;;;6.97;2.90;;;21.50;1.00;;;;;;5005579;28;20225;-59
2023/08/11 06:44:15;;;;;;;7.00;3.30;;;21.60;1.00;;;;;;5007352;28;20703;-59
2023/08/11 06:46:44;;;;;;;3.40;3.10;;;21.80;1.00;;;;;;5005513;28;20314;-58
2023/08/11 06:49:12;;;;;;;5.27;3.20;;;21.90;1.00;;;;;;5004025;28;20195;-59
2023/08/11 06:51:40;;;;;;;3.13;2.93;;;22.20;1.00;;;;;;4994959;28;20218;-59
2023/08/11 06:54:09;;;;;;;7.07;3.13;;;22.30;1.00;;;;;;5002146;28;20228;-59
2023/08/11 06:56:37;;;;;;;4.00;2.93;;;22.50;99.90;;;;;;5010852;28;20225;-59
2023/08/11 06:59:07;;;;;;;3.20;3.00;;;22.50;99.90;;;;;;5001836;28;20222;-59
2023/08/11 07:01:36;;;;;;;3.70;2.93;;;22.60;99.90;;;;;;5004955;28;20229;-59
2023/08/11 07:04:05;;;;;;;4.83;2.97;;;22.80;99.90;;;;;;5006884;28;20695;-59
2023/08/11 07:06:33;;;;;;;5.90;2.87;;;23.00;99.90;;;;;;5006734;28;20214;-59
2023/08/11 07:09:02;;;;;;;3.50;3.07;;;23.20;99.90;;;;;;5009788;28;20231;-59
2023/08/11 07:11:30;;;;;;;3.47;2.87;;;23.30;88.60;;;;;;5004866;28;20235;-59
2023/08/11 07:13:58;;;;;;;3.70;3.20;;;23.40;99.90;;;;;;5005687;28;20221;-59
2023/08/11 07:16:28;;;;;;;4.47;2.90;;;23.60;99.90;;;;;;5007308;28;20238;-58
2023/08/11 07:18:56;;;;;;;7.07;2.80;;;23.60;99.90;;;;;;5006901;28;20220;-58
2023/08/11 07:21:25;;;;;;;3.10;2.83;;;23.70;99.90;;;;;;5007853;28;20200;-59
2023/08/11 07:23:54;;;;;;;3.07;2.67;;;23.80;99.90;;;;;;5007904;28;20240;-59
2023/08/11 07:26:22;;;;;;;5.73;3.20;;;24.10;1.00;;;;;;5009897;28;20232;-59
2023/08/11 07:28:51;;;;;;;2.93;2.70;;;24.20;1.00;;;;;;5005386;28;20222;-60
2023/08/11 07:31:19;;;;;;;5.63;3.20;;;24.60;1.00;;;;;;5013211;28;20593;-59
2023/08/11 07:33:49;;;;;;;3.50;2.40;;;24.80;99.90;;;;;;5008368;28;20678;-59
2023/08/11 07:36:17;;;;;;;4.77;2.73;;;25.20;99.90;;;;;;5008024;28;20234;-59
2023/08/11 07:38:46;;;;;;;4.13;2.70;;;25.40;99.90;;;;;;5005809;28;20230;-59
2023/08/11 07:41:14;;;;;;;3.53;2.80;;;25.30;99.90;;;;;;5006602;28;20226;-59
2023/08/11 07:43:42;;;;;;;6.23;3.13;;;25.20;99.90;;;;;;5003062;28;20233;-59
2023/08/11 07:46:10;;;;;;;3.60;2.60;;;25.00;99.90;;;;;;5008393;28;20207;-59
2023/08/11 07:48:39;;;;;;;4.50;2.83;;;24.90;99.90;;;;;;4997499;28;20203;-59
2023/08/11 07:51:09;;;;;;;4.93;2.80;;;24.90;99.90;;;;;;5008670;28;20229;-59
2023/08/11 07:53:38;;;;;;;4.83;3.10;;;25.10;99.90;;;;;;5009494;28;20323;-59
2023/08/11 07:56:06;;;;;;;3.60;3.30;;;25.30;99.90;;;;;;5007280;28;20222;-60
2023/08/11 07:58:34;;;;;;;9.25;3.55;;;25.30;99.90;;;;;;5007785;28;20222;-59
2023/08/11 08:01:03;;;;;;;7.80;3.38;;;25.30;99.90;;;;;;5005352;28;20203;-59
2023/08/11 08:03:31;;;;;;;3.53;2.80;;;25.50;99.90;;;;;;5010675;28;20217;-59
2023/08/11 08:06:00;;;;;;;2.92;2.72;;;25.60;99.90;;;;;;5006673;28;20650;-60
2023/08/11 08:08:29;;;;;;;5.18;3.15;;;25.60;99.90;;;;;;5008915;28;20253;-60
2023/08/11 08:10:58;;;;;;;8.27;3.55;;;26.00;99.90;;;;;;5011777;28;20231;-60
2023/08/11 08:13:26;;;;;;;9.05;3.25;;;26.40;99.90;;;;;;5010168;28;20231;-60
2023/08/11 08:15:55;;;;;;;8.18;2.60;;;26.80;99.90;;;;;;5006634;28;20192;-60
2023/08/11 08:18:23;;;;;;;5.43;2.90;;;27.00;99.90;;;;;;4991301;28;20238;-60
2023/08/11 08:20:51;;;;;;;7.32;3.08;;;27.30;99.90;;;;;;5003798;28;20228;-60
2023/08/11 08:23:20;;;;;;;7.72;2.92;;;27.30;99.90;;;;;;5010580;28;20621;-59
2023/08/11 08:25:50;;;;;;;6.00;2.58;;;27.20;99.90;;;;;;5006820;28;20217;-60
2023/08/11 08:28:18;;;;;;;4.38;2.40;;;27.00;99.90;;;;;;5007555;28;20225;-60
2023/08/11 08:30:47;;;;;;;2.50;2.40;;;26.90;99.90;;;;;;5006365;28;20707;-60
2023/08/11 08:33:15;;;;;;;3.25;2.60;;;26.80;99.90;;;;;;5005580;28;20215;-60
2023/08/11 08:35:44;;;;;;;3.75;2.60;;;26.80;99.90;;;;;;5005742;28;20216;-60
2023/08/11 08:38:12;;;;;;;7.28;2.47;;;26.80;99.90;;;;;;5007655;28;20326;-60
2023/08/11 08:40:42;;;;;;;7.10;2.90;;;27.00;99.90;;;;;;5001286;28;20233;-60
2023/08/11 08:43:12;;;;;;;7.72;2.90;;;27.20;99.90;;;;;;5005110;28;20220;-61
2023/08/11 08:45:43;;;;;;;3.05;2.75;;;27.60;99.90;;;;;;5004007;28;20195;-61
2023/08/11 08:48:18;;;;;;;3.15;2.72;;;27.70;99.90;;;;;;5007979;28;20231;-60
2023/08/11 08:50:46;;;;;;;4.40;2.72;;;27.70;99.90;;;;;;5007317;28;20232;-60
2023/08/11 08:53:15;;;;;;;9.20;2.58;;;27.80;99.90;;;;;;5007392;28;20226;-60
2023/08/11 08:55:43;;;;;;;6.60;2.60;;;28.10;99.90;;;;;;4992212;28;20567;-60
2023/08/11 08:58:14;;;;;;;5.18;2.88;;;28.30;99.90;;;;;;5005850;28;20191;-60
2023/08/11 09:00:43;;;;;;;3.95;2.80;;;28.40;99.90;;;;;;5004409;28;20198;-58
2023/08/11 09:03:13;;;;;;;3.95;2.58;;;28.70;99.90;;;;;;5009678;28;20225;-61
2023/08/11 09:05:41;;;;;;;2.85;2.60;;;28.80;99.90;;;;;;5011730;28;20355;-61
2023/08/11 09:08:10;;;;;;;3.22;2.50;;;29.10;99.90;;;;;;5009147;28;20224;-61
2023/08/11 09:10:38;;;;;;;3.20;2.60;;;29.30;99.90;;;;;;5007681;28;20225;-58
2023/08/11 09:13:07;;;;;;;2.58;2.38;;;29.50;99.90;;;;;;5012162;28;20275;-59
2023/08/11 09:15:36;;;;;;;3.22;2.58;;;29.60;99.90;;;;;;5005714;28;20200;-61
2023/08/11 09:18:06;;;;;;;2.25;2.15;;;30.00;99.90;;;;;;4999121;28;20587;-61
2023/08/11 09:20:37;;;;;;;2.20;1.95;;;29.90;99.90;;;;;;5004952;28;20647;-61
2023/08/11 09:23:06;;;;;;;4.15;2.30;;;30.30;99.90;;;;;;5005252;28;20324;-61
2023/08/11 09:25:34;;;;;;;2.22;2.08;;;30.50;99.90;;;;;;5006606;28;20276;-61
2023/08/11 09:28:03;;;;;;;2.17;2.08;;;30.40;99.90;;;;;;5005214;28;20305;-61
2023/08/11 09:30:32;;;;;;;5.05;2.30;;;30.40;99.90;;;;;;5002343;28;20608;-61
2023/08/11 09:33:03;;;;;;;2.83;2.38;;;30.50;99.90;;;;;;5008715;28;20306;-61
2023/08/11 09:35:32;;;;;;;2.97;2.28;;;30.40;99.90;;;;;;5000582;28;20331;-61
2023/08/11 09:38:01;;;;;;;4.50;2.28;;;30.40;99.90;;;;;;5007532;28;20221;-61
2023/08/11 09:40:29;;;;;;;4.13;2.40;;;31.00;99.90;;;;;;5010915;28;20682;-59
2023/08/11 09:42:58;;;;;;;2.35;2.13;;;31.30;99.90;;;;;;5008253;28;20202;-58
2023/08/11 09:45:26;;;;;;;1.95;1.90;;;31.70;99.90;;;;;;5005024;28;20194;-59
2023/08/11 09:47:54;;;;;;;3.65;2.35;;;32.20;99.90;;;;;;5000920;28;20223;-59
2023/08/11 09:50:27;;;;;;;5.85;2.30;;;32.50;99.90;;;;;;5002122;28;20229;-59
2023/08/11 09:52:57;;;;;;;3.45;2.30;;;33.30;99.90;;;;;;5001971;28;20698;-59
2023/08/11 09:55:26;;;;;;;3.75;2.22;;;33.70;99.90;;;;;;5006135;28;20222;-59
2023/08/11 09:57:56;;;;;;;2.50;2.40;;;33.60;99.90;;;;;;5004169;28;20187;-58
2023/08/11 10:00:25;;;;;;;2.95;2.45;;;33.90;99.90;;;;;;5007880;28;21338;-61
2023/08/11 10:03:00;;;;;;;2.53;2.42;;;34.20;99.90;;;;;;5006735;28;20217;-61
2023/08/11 10:05:33;;;;;;;2.40;2.30;;;33.70;99.90;;;;;;5009256;28;20276;-59
2023/08/11 10:08:04;;;;;;;2.50;2.30;;;33.50;99.90;;;;;;5011290;28;20588;-60
2023/08/11 10:10:34;;;;;;;2.35;2.25;;;33.50;99.90;;;;;;5003943;28;20226;-60
2023/08/11 10:13:08;;;;;;;3.90;2.25;;;33.50;99.90;;;;;;4998757;28;20201;-61
2023/08/11 10:15:37;;;;;;;2.63;2.40;;;33.70;99.90;;;;;;4994407;28;20225;-61
2023/08/11 10:18:07;;;;;;;2.75;2.30;;;33.50;99.90;;;;;;5004541;28;20584;-60
2023/08/11 10:20:37;;;;;;;4.28;2.25;;;33.40;99.90;;;;;;4997707;28;20329;-61
2023/08/11 10:23:06;;;;;;;4.18;2.70;;;33.80;99.90;;;;;;5000709;28;20313;-60
2023/08/11 10:25:34;;;;;;;2.67;2.47;;;33.90;99.90;;;;;;5006914;28;20234;-61
2023/08/11 10:28:07;;;;;;;2.78;2.60;;;33.60;99.90;;;;;;5003877;28;20214;-61
2023/08/11 10:30:37;;;;;;;2.47;2.33;;;33.50;99.90;;;;;;5004539;28;20596;-60
2023/08/11 10:33:06;;;;;;;3.17;2.40;;;33.80;99.90;;;;;;4985187;28;20222;-60
2023/08/11 10:35:51;;;;;;;2.53;2.35;;;34.00;99.90;;;;;;5002653;28;20221;-60
2023/08/11 10:38:25;;;;;;;3.15;2.53;;;33.80;99.90;;;;;;5004725;28;20310;-60
2023/08/11 10:40:59;;;;;;;7.90;2.60;;;33.60;99.90;;;;;;5005526;28;20218;-60
2023/08/11 10:43:33;;;;;;;4.00;2.50;;;33.70;99.90;;;;;;4998725;28;20307;-60
2023/08/11 10:46:19;;;;;;;5.35;2.38;;;33.70;99.90;;;;;;5014353;28;20692;-60
2023/08/11 10:48:47;;;;;;;2.55;2.22;;;33.10;99.90;;;;;;5011052;28;20203;-60
2023/08/11 10:51:28;;;;;;;3.05;2.70;;;33.00;99.90;;;;;;4996076;28;20237;-60
2023/08/11 10:53:58;;;;;;;2.70;2.50;;;32.60;99.90;;;;;;4999589;28;20223;-60
2023/08/11 10:56:34;;;;;;;2.33;2.22;;;32.40;99.90;;;;;;5004575;28;20224;-60
2023/08/11 10:59:08;;;;;;;4.82;2.50;;;32.40;99.90;;;;;;4991732;28;20221;-60
2023/08/11 11:01:37;;;;;;;2.65;2.45;;;32.80;99.90;;;;;;5000551;28;20333;-60
2023/08/11 11:04:07;;;;;;;2.20;2.10;;;32.90;99.90;;;;;;4999344;28;20256;-60
2023/08/11 11:06:37;;;;;;;2.75;2.50;;;32.70;99.90;;;;;;5003113;28;20205;-59
2023/08/11 11:09:06;;;;;;;2.70;2.38;;;32.50;99.90;;;;;;5001561;28;20230;-60
2023/08/11 11:11:36;;;;;;;3.90;2.70;;;32.10;99.90;;;;;;4997438;28;20213;-59
2023/08/11 11:14:05;;;;;;;4.47;2.78;;;31.50;99.90;;;;;;5002621;28;20719;-59
2023/08/11 11:16:34;;;;;;;2.78;2.58;;;31.50;99.90;;;;;;5003414;28;20238;-59
2023/08/11 11:19:03;;;;;;;4.82;2.80;;;31.40;99.90;;;;;;5001007;28;20559;-60
2023/08/11 11:21:34;;;;;;;4.57;2.70;;;31.20;99.90;;;;;;4994230;28;20206;-60
2023/08/11 11:24:04;;;;;;;5.72;3.22;;;31.10;99.90;;;;;;5005081;28;20218;-60
2023/08/11 11:26:34;;;;;;;2.85;2.67;;;31.30;99.90;;;;;;5001098;28;20238;-65
2023/08/11 11:29:04;;;;;;;5.22;2.70;;;31.50;99.90;;;;;;5001735;28;20728;-59
2023/08/11 11:31:34;;;;;;;3.42;2.85;;;31.50;99.90;;;;;;5009119;28;20322;-60
2023/08/11 11:34:03;;;;;;;3.20;3.00;;;31.60;99.90;;;;;;5011560;28;20195;-60
2023/08/11 11:36:33;;;;;;;4.05;2.65;;;31.70;99.90;;;;;;5010484;28;20255;-60
2023/08/11 11:39:03;;;;;;;3.28;2.80;;;31.40;99.90;;;;;;5012432;28;20214;-60
2023/08/11 11:41:33;;;;;;;3.08;2.53;;;31.40;99.90;;;;;;5004829;28;20644;-60
2023/08/11 11:44:03;;;;;;;4.40;3.13;;;31.30;99.90;;;;;;5006643;28;20217;-60
2023/08/11 11:46:33;;;;;;;2.72;2.53;;;31.00;99.90;;;;;;5012804;28;20564;-60
2023/08/11 11:49:03;;;;;;;2.95;2.70;;;31.10;99.90;;;;;;4979858;28;20218;-60
2023/08/11 11:51:43;;;;;;;3.28;3.03;;;30.70;99.90;;;;;;5006968;28;20612;-60
2023/08/11 11:54:13;;;;;;;5.45;3.25;;;30.40;99.90;;;;;;5011037;28;20228;-60
2023/08/11 11:56:41;;;;;;;6.07;3.25;;;30.40;99.90;;;;;;5004213;28;20309;-60
2023/08/11 11:59:30;;;;;;;3.22;3.03;;;30.40;99.90;;;;;;5009826;28;20258;-60
2023/08/11 12:02:00;;;;;;;7.90;3.67;;;30.00;99.90;;;;;;5010266;28;20222;-59
2023/08/11 12:04:30;;;;;;;4.55;3.30;;;29.80;99.90;;;;;;5010916;28;20316;-59
2023/08/11 12:06:58;;;;;;;3.33;3.10;;;29.70;99.90;;;;;;4986577;28;20212;-59
2023/08/11 12:09:28;;;;;;;5.85;3.42;;;29.80;99.90;;;;;;4998934;28;20311;-62
2023/08/11 12:11:57;;;;;;;3.67;3.35;;;29.90;99.90;;;;;;5010555;28;20228;-57
2023/08/11 12:14:27;;;;;;;5.00;3.67;;;30.00;99.90;;;;;;5008382;28;20603;-62
2023/08/11 12:16:57;;;;;;;6.88;3.78;;;30.10;99.90;;;;;;5009112;28;20221;-60
2023/08/11 12:19:25;;;;;;;6.43;3.33;;;30.20;99.90;;;;;;5007042;28;20232;-59
2023/08/11 12:21:53;;;;;;;6.03;3.60;;;30.30;99.90;;;;;;5011039;28;20201;-58
2023/08/11 12:24:22;;;;;;;4.63;3.60;;;30.00;99.90;;;;;;5003034;28;20347;-59
2023/08/11 12:26:52;;;;;;;7.65;4.25;;;30.00;99.90;;;;;;5003912;28;20569;-59
2023/08/11 12:29:20;;;;;;;4.30;3.90;;;30.10;99.90;;;;;;5003726;28;20649;-61
2023/08/11 12:31:50;;;;;;;4.38;4.03;;;30.00;99.90;;;;;;4998573;28;20580;-60
2023/08/11 12:34:19;;;;;;;3.85;3.65;;;30.00;99.90;;;;;;4986488;28;20303;-61
2023/08/11 12:36:47;;;;;;;4.30;3.97;;;30.00;99.90;;;;;;4989501;28;20211;-61
2023/08/11 12:39:16;;;;;;;3.92;3.65;;;30.00;99.90;;;;;;5007302;28;20260;-61
2023/08/11 12:41:45;;;;;;;9.07;4.18;;;30.00;99.90;;;;;;5005013;28;20271;-61
2023/08/11 12:44:16;;;;;;;5.53;3.63;;;30.00;99.90;;;;;;5001571;28;20223;-60
2023/08/11 12:46:44;;;;;;;4.20;3.90;;;30.00;99.90;;;;;;5004597;28;20234;-60
2023/08/11 12:49:13;;;;;;;4.85;3.70;;;29.90;99.90;;;;;;5007073;28;20220;-61
2023/08/11 12:51:41;;;;;;;6.15;4.40;;;29.80;99.90;;;;;;5006338;28;20208;-60
2023/08/11 12:54:10;;;;;;;5.32;4.18;;;29.70;99.90;;;;;;5002137;28;20226;-60
2023/08/11 12:56:38;;;;;;;5.95;3.95;;;29.60;99.90;;;;;;5007935;28;20329;-61
2023/08/11 12:59:07;;;;;;;5.70;4.18;;;29.50;99.90;;;;;;5006338;28;20231;-60